Time;durP1;ratioP1;P1;durP2;ratioP2;P2;SDS_P1;SDS_P2;PMS_P1;PMS_P2;Temp;Humidity;BMP_temperature;BMP_pressure;BME280_temperature;BME280_humidity;BME280_pressure;Samples;Min_cycle;Max_cycle;Signal;HPM_P1;HPM_P2
2022/01/14 00:01:10;;;;;;;;;;;;;;;5.60;59.49;101133.22;4443197;32;20306;-92
2022/01/14 00:03:35;;;;;;;;;;;;;;;5.55;59.49;101128.03;4442666;32;24799;-91
2022/01/14 00:06:01;;;;;;;;;;;;;;;5.54;59.49;101134.03;4443705;32;19973;-93
2022/01/14 00:08:26;;;;;;;;;;;;;;;5.51;59.48;101130.56;4443875;32;19993;-93
2022/01/14 00:10:51;;;;;;;;;;;;;;;5.38;59.47;101119.22;4456494;32;19992;-93
2022/01/14 00:13:43;;;;;;;;;;;;;;;5.31;59.48;101122.59;4443419;32;20016;-93
2022/01/14 00:16:02;;;;;;;;;;;;;;;5.29;59.47;101132.03;4456727;32;19992;-93
2022/01/14 00:18:27;;;;;;;;;;;;;;;5.28;59.47;101126.88;4443758;32;19985;-94
2022/01/14 00:20:52;;;;;;;;;;;;;;;5.28;59.47;101129.44;4443351;32;23503;-94
2022/01/14 00:23:19;;;;;;;;;;;;;;;5.39;59.48;101120.09;4443020;32;25012;-94
2022/01/14 00:34:17;;;;;;;;;;;;;;;5.29;59.47;101110.53;4409419;32;19986;-93
2022/01/14 00:36:42;;;;;;;;;;;;;;;5.18;59.47;101106.09;4433459;32;20015;-96
2022/01/14 00:39:08;;;;;;;;;;;;;;;4.96;59.45;101101.50;4444156;32;20008;-94
2022/01/14 00:41:34;;;;;;;;;;;;;;;5.01;59.46;101106.75;4443836;32;20322;-93
2022/01/14 00:44:01;;;;;;;;;;;;;;;5.05;59.46;101111.09;4443611;32;19969;-95
2022/01/14 00:46:27;;;;;;;;;;;;;;;5.11;59.46;101104.28;4443731;32;19977;-95
2022/01/14 00:48:53;;;;;;;;;;;;;;;5.30;59.47;101107.09;4444078;32;20020;-95
2022/01/14 00:51:18;;;;;;;;;;;;;;;5.23;59.47;101094.13;4456699;32;19996;-94
2022/01/14 00:53:43;;;;;;;;;;;;;;;5.22;59.47;101087.22;4442885;32;24275;-95
2022/01/14 00:56:24;;;;;;;;;;;;;;;5.26;59.48;101088.13;4443626;32;19993;-93
2022/01/14 01:01:34;;;;;;;;;;;;;;;5.08;59.46;101088.78;4456614;32;20459;-93
2022/01/14 01:03:59;;;;;;;;;;;;;;;5.12;59.47;101082.78;4443347;32;19997;-95
2022/01/14 01:06:24;;;;;;;;;;;;;;;5.02;59.46;101082.69;4443610;32;19977;-95
2022/01/14 01:08:52;;;;;;;;;;;;;;;4.87;59.45;101085.94;4443632;32;19981;-93
2022/01/14 01:11:23;;;;;;;;;;;;;;;4.86;59.44;101086.78;4443902;32;19989;-94
2022/01/14 01:13:58;;;;;;;;;;;;;;;4.72;59.45;101094.31;4444221;32;19977;-96
2022/01/14 01:16:23;;;;;;;;;;;;;;;4.65;59.44;101092.53;4444150;32;20043;-94
2022/01/14 01:18:48;;;;;;;;;;;;;;;4.61;59.44;101090.75;4442402;32;23832;-94
2022/01/14 01:21:13;;;;;;;;;;;;;;;4.49;59.42;101088.84;4442832;32;20054;-93
2022/01/14 01:23:38;;;;;;;;;;;;;;;4.56;59.43;101095.84;4456206;32;19993;-93
2022/01/14 01:26:12;;;;;;;;;;;;;;;4.46;59.42;101099.13;4442720;32;19993;-95
2022/01/14 01:28:52;;;;;;;;;;;;;;;4.30;59.42;101089.47;4444721;32;20033;-95
2022/01/14 01:31:39;;;;;;;;;;;;;;;4.31;59.42;101091.19;4445161;32;20356;-95
2022/01/14 01:34:03;;;;;;;;;;;;;;;4.40;59.42;101093.03;4456297;32;19981;-94
2022/01/14 01:36:28;;;;;;;;;;;;;;;4.57;59.43;101079.53;4456023;32;19981;-93
2022/01/14 01:38:53;;;;;;;;;;;;;;;4.42;59.43;101079.31;4442743;32;22750;-93
2022/01/14 01:41:19;;;;;;;;;;;;;;;4.48;59.42;101076.81;4442828;32;26678;-95
2022/01/14 01:43:50;;;;;;;;;;;;;;;4.54;59.43;101066.59;4443210;32;19974;-94
2022/01/14 01:46:15;;;;;;;;;;;;;;;4.45;59.43;101068.16;4443734;32;19982;-94
2022/01/14 01:48:40;;;;;;;;;;;;;;;4.20;59.40;101072.09;4443075;32;20306;-95
2022/01/14 01:51:06;;;;;;;;;;;;;;;4.25;59.41;101066.16;4443197;32;20036;-94
2022/01/14 01:53:31;;;;;;;;;;;;;;;4.05;59.40;101064.16;4443394;32;27650;-95
2022/01/14 01:55:56;;;;;;;;;;;;;;;4.11;59.41;101061.69;4444599;32;19981;-95
2022/01/14 01:58:22;;;;;;;;;;;;;;;4.12;59.40;101066.84;4445201;32;20102;-95
2022/01/14 02:00:47;;;;;;;;;;;;;;;3.79;59.39;101056.91;4445098;32;20029;-95
2022/01/14 02:03:13;;;;;;;;;;;;;;;3.83;59.40;101057.81;4444752;32;20066;-95
2022/01/14 02:05:38;;;;;;;;;;;;;;;3.92;59.40;101056.22;4443805;32;19977;-94
2022/01/14 02:08:04;;;;;;;;;;;;;;;3.95;59.39;101055.41;4444114;32;20023;-94
2022/01/14 02:10:29;;;;;;;;;;;;;;;4.07;59.41;101047.03;4444173;32;20263;-95
2022/01/14 02:12:54;;;;;;;;;;;;;;;4.22;59.41;101035.19;4446161;32;19981;-96
2022/01/14 02:23:10;;;;;;;;;;;;;;;4.07;59.40;101027.28;4458352;32;20032;-95
2022/01/14 02:25:36;;;;;;;;;;;;;;;4.01;59.40;101022.00;4444694;32;19969;-93
2022/01/14 02:28:02;;;;;;;;;;;;;;;3.93;59.40;101015.88;4457924;32;19989;-92
2022/01/14 02:30:28;;;;;;;;;;;;;;;3.86;59.39;101014.94;4445037;32;20000;-94
2022/01/14 02:32:53;;;;;;;;;;;;;;;3.96;59.39;101011.62;4445203;32;19993;-93
2022/01/14 02:35:19;;;;;;;;;;;;;;;3.76;59.39;101010.47;4458463;32;20037;-93
2022/01/14 02:37:44;;;;;;;;;;;;;;;3.70;59.38;101000.94;4458293;32;20281;-94
2022/01/14 02:40:09;;;;;;;;;;;;;;;3.72;59.39;101006.09;4457391;32;20031;-93
2022/01/14 02:42:35;;;;;;;;;;;;;;;3.50;59.37;100999.75;4445052;32;20061;-94
2022/01/14 02:45:04;;;;;;;;;;;;;;;3.62;59.38;101005.09;4458219;32;20024;-95
2022/01/14 02:47:30;;;;;;;;;;;;;;;3.79;59.39;100999.37;4459109;32;20660;-95
2022/01/14 02:49:55;;;;;;;;;;;;;;;3.73;59.39;100994.09;4459207;32;20008;-96
2022/01/14 02:52:39;;;;;;;;;;;;;;;3.75;59.38;100992.41;4459996;32;20328;-96
2022/01/14 02:55:15;;;;;;;;;;;;;;;3.82;59.38;100992.56;4462912;32;19994;-95
2022/01/14 02:57:42;;;;;;;;;;;;;;;3.94;59.39;100989.28;4460804;32;20636;-96
2022/01/14 03:00:07;;;;;;;;;;;;;;;3.97;59.39;100987.59;4445803;32;20044;-94
2022/01/14 03:02:33;;;;;;;;;;;;;;;3.93;59.40;100977.25;4445426;32;19980;-94
2022/01/14 03:04:58;;;;;;;;;;;;;;;3.96;59.39;100982.44;4445238;32;19981;-95
2022/01/14 03:07:24;;;;;;;;;;;;;;;3.96;59.40;100965.25;4457630;32;20529;-96
2022/01/14 03:09:49;;;;;;;;;;;;;;;3.92;59.40;100971.22;4458286;32;20005;-94
2022/01/14 03:12:14;;;;;;;;;;;;;;;3.73;59.38;100960.62;4458046;32;20032;-94
2022/01/14 03:14:39;;;;;;;;;;;;;;;3.78;59.39;100970.13;4458179;32;19992;-95
2022/01/14 03:17:05;;;;;;;;;;;;;;;3.90;59.40;100965.19;4456900;32;20238;-95
2022/01/14 03:19:30;;;;;;;;;;;;;;;3.85;59.39;100955.66;4457927;32;20000;-95
2022/01/14 03:22:06;;;;;;;;;;;;;;;3.74;59.39;100952.06;4458010;32;20314;-95
2022/01/14 03:27:03;;;;;;;;;;;;;;;3.60;59.37;100960.44;4458751;32;20643;-95
2022/01/14 03:29:28;;;;;;;;;;;;;;;3.62;59.38;100945.87;4458342;32;20335;-95
2022/01/14 03:31:53;;;;;;;;;;;;;;;3.63;59.38;100951.91;4458026;32;20041;-95
2022/01/14 03:34:18;;;;;;;;;;;;;;;3.53;59.38;100950.88;4457833;32;20249;-94
2022/01/14 03:36:44;;;;;;;;;;;;;;;3.45;59.37;100949.03;4457560;32;20007;-94
2022/01/14 03:39:09;;;;;;;;;;;;;;;3.39;59.37;100944.66;4457425;32;20314;-96
2022/01/14 03:41:34;;;;;;;;;;;;;;;3.39;59.37;100947.25;4457544;32;20281;-96
2022/01/14 03:43:59;;;;;;;;;;;;;;;3.27;59.36;100950.47;4457797;32;20026;-95
2022/01/14 03:46:25;;;;;;;;;;;;;;;3.20;59.35;100938.34;4457473;32;19988;-94
2022/01/14 03:48:52;;;;;;;;;;;;;;;3.27;59.36;100939.31;4457496;32;20083;-94
2022/01/14 03:51:17;;;;;;;;;;;;;;;3.20;59.35;100935.78;4457488;32;19973;-96
2022/01/14 03:53:45;;;;;;;;;;;;;;;3.08;59.34;100927.88;4444371;32;19984;-93
2022/01/14 03:56:10;;;;;;;;;;;;;;;3.10;59.35;100927.88;4457398;32;20046;-94
2022/01/14 03:58:36;;;;;;;;;;;;;;;3.10;59.36;100925.31;4457152;32;20020;-95
2022/01/14 04:01:02;;;;;;;;;;;;;;;3.18;59.36;100922.00;4458123;32;19973;-94
2022/01/14 04:03:27;;;;;;;;;;;;;;;3.29;59.36;100925.63;4457393;32;20355;-94
2022/01/14 04:05:52;;;;;;;;;;;;;;;3.35;59.36;100923.16;4456649;32;20013;-94
2022/01/14 04:08:17;;;;;;;;;;;;;;;3.47;59.37;100919.03;4457382;32;20015;-96
2022/01/14 04:10:43;;;;;;;;;;;;;;;3.52;59.37;100917.38;4457405;32;19976;-96
2022/01/14 04:13:18;;;;;;;;;;;;;;;3.51;59.37;100925.97;4457507;32;19985;-95
2022/01/14 04:15:46;;;;;;;;;;;;;;;3.68;59.39;100927.94;4458337;32;20000;-94
2022/01/14 04:18:15;;;;;;;;;;;;;;;3.75;59.38;100933.19;4457408;32;20709;-94
2022/01/14 04:20:41;;;;;;;;;;;;;;;3.81;59.38;100923.00;4457009;32;20006;-94
2022/01/14 04:23:06;;;;;;;;;;;;;;;3.97;59.40;100912.03;4442994;32;19981;-95
2022/01/14 04:25:32;;;;;;;;;;;;;;;3.91;59.40;100906.81;4455191;32;20083;-95
2022/01/14 04:27:58;;;;;;;;;;;;;;;3.87;59.39;100905.91;4443286;32;20016;-93
2022/01/14 04:30:24;;;;;;;;;;;;;;;3.87;59.39;100887.87;4457616;32;20025;-93
2022/01/14 04:32:49;;;;;;;;;;;;;;;3.98;59.41;100893.16;4457845;32;20074;-92
2022/01/14 04:35:15;;;;;;;;;;;;;;;3.79;59.39;100881.78;4457232;32;20001;-93
2022/01/14 04:37:40;;;;;;;;;;;;;;;3.85;59.40;100896.44;4457207;32;20004;-92
2022/01/14 04:40:06;;;;;;;;;;;;;;;3.99;59.41;100892.31;4457232;32;19984;-92
2022/01/14 04:42:31;;;;;;;;;;;;;;;4.04;59.40;100887.25;4444095;32;20343;-93
2022/01/14 04:44:57;;;;;;;;;;;;;;;4.09;59.40;100877.84;4456842;32;20269;-92
2022/01/14 04:47:43;;;;;;;;;;;;;;;4.04;59.40;100887.25;4457472;32;19989;-93
2022/01/14 04:50:09;;;;;;;;;;;;;;;4.00;59.40;100883.72;4461254;32;19980;-93
2022/01/14 04:52:34;;;;;;;;;;;;;;;4.09;59.41;100888.16;4457924;32;20000;-94
2022/01/14 04:54:59;;;;;;;;;;;;;;;4.14;59.41;100881.34;4457541;32;20023;-91
2022/01/14 04:57:24;;;;;;;;;;;;;;;4.09;59.40;100870.13;4457803;32;20032;-91
2022/01/14 05:00:12;;;;;;;;;;;;;;;4.11;59.41;100861.56;4457577;32;19985;-92
2022/01/14 05:02:37;;;;;;;;;;;;;;;4.09;59.41;100852.94;4471881;32;19973;-94
2022/01/14 05:05:03;;;;;;;;;;;;;;;4.00;59.40;100851.09;4457712;32;20366;-95
2022/01/14 05:07:28;;;;;;;;;;;;;;;4.06;59.41;100860.66;4445102;32;20001;-93
2022/01/14 05:10:09;;;;;;;;;;;;;;;3.87;59.39;100864.69;4457939;32;20011;-92
2022/01/14 05:12:35;;;;;;;;;;;;;;;3.86;59.39;100865.53;4459160;32;19996;-91
2022/01/14 05:15:01;;;;;;;;;;;;;;;3.91;59.40;100869.03;4443675;32;20003;-91
2022/01/14 05:17:26;;;;;;;;;;;;;;;3.69;59.39;100857.59;4444919;32;19984;-92
2022/01/14 05:19:52;;;;;;;;;;;;;;;3.72;59.38;100859.34;4458098;32;19995;-93
2022/01/14 05:22:17;;;;;;;;;;;;;;;3.65;59.38;100860.97;4458093;32;19994;-94
2022/01/14 05:24:43;;;;;;;;;;;;;;;3.53;59.38;100857.34;4458737;32;20015;-94
2022/01/14 05:27:08;;;;;;;;;;;;;;;3.48;59.38;100859.00;4444228;32;19996;-91
2022/01/14 05:29:33;;;;;;;;;;;;;;;3.51;59.37;100854.75;4457189;32;20309;-93
2022/01/14 05:32:06;;;;;;;;;;;;;;;3.43;59.37;100851.22;4456867;32;20018;-92
2022/01/14 05:34:34;;;;;;;;;;;;;;;3.55;59.37;100858.22;4458046;32;19993;-91
2022/01/14 05:37:00;;;;;;;;;;;;;;;3.53;59.38;100854.75;4444050;32;20049;-94
2022/01/14 05:39:25;;;;;;;;;;;;;;;3.33;59.36;100857.94;4456196;32;19980;-92
2022/01/14 05:41:50;;;;;;;;;;;;;;;3.43;59.37;100850.34;4456394;32;19991;-92
2022/01/14 05:44:16;;;;;;;;;;;;;;;3.48;59.38;100846.13;4456457;32;20019;-90
2022/01/14 05:46:41;;;;;;;;;;;;;;;3.39;59.37;100852.88;4456198;32;20007;-91
2022/01/14 05:49:06;;;;;;;;;;;;;;;3.45;59.37;100851.22;4456659;32;20010;-92
2022/01/14 05:51:32;;;;;;;;;;;;;;;3.45;59.37;100851.22;4456317;32;19989;-91
2022/01/14 05:53:57;;;;;;;;;;;;;;;3.46;59.38;100856.41;4456554;32;19997;-91
2022/01/14 05:56:22;;;;;;;;;;;;;;;3.46;59.37;100851.25;4456728;32;20021;-92
2022/01/14 05:58:48;;;;;;;;;;;;;;;3.51;59.37;100851.31;4457253;32;19985;-91
2022/01/14 06:01:13;;;;;;;;;;;;;;;3.36;59.36;100855.41;4457191;32;20025;-92
2022/01/14 06:03:38;;;;;;;;;;;;;;;3.27;59.36;100855.25;4457114;32;19988;-94
2022/01/14 06:06:03;;;;;;;;;;;;;;;3.30;59.36;100854.44;4457337;32;19993;-94
2022/01/14 06:08:29;;;;;;;;;;;;;;;3.32;59.36;100853.63;4457262;32;20301;-91
2022/01/14 06:10:54;;;;;;;;;;;;;;;3.48;59.38;100848.69;4456817;32;20089;-92
2022/01/14 06:13:19;;;;;;;;;;;;;;;3.58;59.37;100835.12;4457514;32;19996;-93
2022/01/14 06:15:44;;;;;;;;;;;;;;;3.51;59.37;100848.72;4456843;32;20012;-91
2022/01/14 06:18:10;;;;;;;;;;;;;;;3.60;59.37;100834.31;4457021;32;19984;-92
2022/01/14 06:20:35;;;;;;;;;;;;;;;3.52;59.37;100835.03;4457222;32;19973;-93
2022/01/14 06:23:00;;;;;;;;;;;;;;;3.62;59.38;100829.16;4457131;32;20032;-93
2022/01/14 06:25:25;;;;;;;;;;;;;;;3.77;59.39;100833.63;4456651;32;20020;-92
2022/01/14 06:27:51;;;;;;;;;;;;;;;3.68;59.37;100818.94;4453794;32;19977;-92
2022/01/14 06:30:16;;;;;;;;;;;;;;;3.55;59.37;100806.75;4453958;32;20023;-90
2022/01/14 06:32:41;;;;;;;;;;;;;;;3.73;59.38;100809.56;4440788;32;19977;-91
2022/01/14 06:35:10;;;;;;;;;;;;;;;3.78;59.39;100815.63;4436841;32;20008;-91
2022/01/14 06:37:35;;;;;;;;;;;;;;;3.63;59.38;100820.59;4455047;32;20048;-92
2022/01/14 06:40:01;;;;;;;;;;;;;;;3.71;59.39;100829.28;4440911;32;19993;-92
2022/01/14 06:42:26;;;;;;;;;;;;;;;3.74;59.38;100821.59;4440770;32;20117;-92
2022/01/14 06:44:51;;;;;;;;;;;;;;;3.72;59.39;100827.56;4441195;32;19997;-92
2022/01/14 06:47:17;;;;;;;;;;;;;;;3.96;59.40;100815.00;4454155;32;19973;-92
2022/01/14 06:49:43;;;;;;;;;;;;;;;3.90;59.39;100825.22;4441011;32;20371;-91
2022/01/14 06:52:08;;;;;;;;;;;;;;;3.95;59.39;100821.84;4440611;32;19993;-91
2022/01/14 06:54:37;;;;;;;;;;;;;;;3.96;59.40;100820.16;4441216;32;20064;-90
2022/01/14 06:57:02;;;;;;;;;;;;;;;4.04;59.40;100815.97;4454697;32;19973;-92
2022/01/14 06:59:27;;;;;;;;;;;;;;;4.08;59.41;100817.72;4440986;32;20373;-91
2022/01/14 07:01:53;;;;;;;;;;;;;;;3.99;59.40;100809.87;4440181;32;19985;-91
2022/01/14 07:04:18;;;;;;;;;;;;;;;3.97;59.41;100817.59;4441976;32;20001;-92
2022/01/14 07:06:43;;;;;;;;;;;;;;;4.00;59.40;100804.75;4441500;32;20337;-92
2022/01/14 07:09:12;;;;;;;;;;;;;;;3.81;59.39;100818.28;4441226;32;20303;-92
2022/01/14 07:11:37;;;;;;;;;;;;;;;3.69;59.38;100816.37;4441394;32;20011;-93
2022/01/14 07:14:03;;;;;;;;;;;;;;;3.73;59.39;100809.56;4441659;32;20024;-92
2022/01/14 07:16:28;;;;;;;;;;;;;;;3.97;59.39;100806.41;4441817;32;20014;-92
2022/01/14 07:18:54;;;;;;;;;;;;;;;4.01;59.40;100801.31;4441701;32;20038;-92
2022/01/14 07:21:19;;;;;;;;;;;;;;;3.91;59.40;100807.22;4441590;32;19993;-93
2022/01/14 07:23:44;;;;;;;;;;;;;;;3.96;59.40;100802.97;4441231;32;19997;-91
2022/01/14 07:26:09;;;;;;;;;;;;;;;4.23;59.41;100801.56;4454084;32;19973;-93
2022/01/14 07:28:34;;;;;;;;;;;;;;;4.43;59.43;100794.03;4440934;32;20019;-92
2022/01/14 07:31:00;;;;;;;;;;;;;;;4.43;59.43;100794.88;4440970;32;20344;-91
2022/01/14 07:33:25;;;;;;;;;;;;;;;4.31;59.42;100787.06;4440718;32;20371;-92
2022/01/14 07:35:50;;;;;;;;;;;;;;;4.06;59.40;100788.50;4454055;32;19996;-92
2022/01/14 07:38:15;;;;;;;;;;;;;;;4.08;59.40;100789.37;4454210;32;20003;-92
2022/01/14 07:40:41;;;;;;;;;;;;;;;4.21;59.42;100792.94;4441220;32;20004;-93
2022/01/14 07:43:06;;;;;;;;;;;;;;;4.33;59.42;100787.94;4441118;32;20345;-91
2022/01/14 07:45:31;;;;;;;;;;;;;;;4.37;59.43;100783.66;4440466;32;20025;-91
2022/01/14 07:47:56;;;;;;;;;;;;;;;4.22;59.42;100786.94;4454408;32;19981;-93
2022/01/14 07:50:22;;;;;;;;;;;;;;;4.55;59.43;100778.69;4441896;32;20231;-93
2022/01/14 07:52:47;;;;;;;;;;;;;;;4.61;59.44;100794.19;4441715;32;20008;-93
2022/01/14 07:55:12;;;;;;;;;;;;;;;4.86;59.45;100788.38;4441981;32;20046;-95
2022/01/14 07:57:37;;;;;;;;;;;;;;;5.06;59.46;100795.41;4441593;32;20272;-92
2022/01/14 08:00:04;;;;;;;;;;;;;;;5.18;59.47;100788.59;4441741;32;20085;-92
2022/01/14 08:02:29;;;;;;;;;;;;;;;5.15;59.46;100790.31;4442021;32;19993;-90
2022/01/14 08:04:55;;;;;;;;;;;;;;;5.20;59.47;100788.63;4442764;32;20384;-94
2022/01/14 08:07:23;;;;;;;;;;;;;;;5.33;59.48;100789.56;4456017;32;20041;-94
2022/01/14 08:09:48;;;;;;;;;;;;;;;5.27;59.48;100792.13;4443795;32;19988;-95
2022/01/14 08:12:13;;;;;;;;;;;;;;;5.45;59.48;100794.81;4443102;32;20032;-95
2022/01/14 08:14:38;;;;;;;;;;;;;;;5.44;59.48;100788.78;4443023;32;20012;-93
2022/01/14 08:17:04;;;;;;;;;;;;;;;5.30;59.47;100787.84;4443299;32;19972;-93
2022/01/14 08:19:33;;;;;;;;;;;;;;;5.48;59.49;100787.94;4442853;32;20053;-94
2022/01/14 08:21:58;;;;;;;;;;;;;;;5.58;59.49;100788.84;4443476;32;20008;-92
2022/01/14 08:24:24;;;;;;;;;;;;;;;5.65;59.49;100782.84;4443207;32;19992;-93
2022/01/14 08:26:49;;;;;;;;;;;;;;;5.81;59.50;100773.44;4442375;32;19981;-94
2022/01/14 08:29:14;;;;;;;;;;;;;;;5.68;59.49;100776.81;4442484;32;20034;-91
2022/01/14 08:31:39;;;;;;;;;;;;;;;5.64;59.49;100767.34;4442901;32;20358;-92
2022/01/14 08:34:05;;;;;;;;;;;;;;;5.64;59.49;100770.78;4442242;32;19996;-91
2022/01/14 08:36:30;;;;;;;;;;;;;;;5.66;59.49;100769.06;4442815;32;19986;-93
2022/01/14 08:38:56;;;;;;;;;;;;;;;5.61;59.49;100757.88;4442993;32;20322;-94
2022/01/14 08:41:21;;;;;;;;;;;;;;;5.79;59.50;100768.28;4455853;32;19989;-93
2022/01/14 08:43:47;;;;;;;;;;;;;;;5.78;59.50;100770.84;4442516;32;19996;-93
2022/01/14 08:46:13;;;;;;;;;;;;;;;6.00;59.51;100758.91;4441595;32;20254;-91
2022/01/14 08:48:38;;;;;;;;;;;;;;;6.11;59.51;100747.72;4453919;32;20057;-93
2022/01/14 08:51:03;;;;;;;;;;;;;;;6.13;59.51;100747.72;4441819;32;20305;-94
2022/01/14 08:53:29;;;;;;;;;;;;;;;6.14;59.52;100746.84;4442631;32;19986;-92
2022/01/14 08:55:54;;;;;;;;;;;;;;;6.27;59.54;100733.09;4442423;32;20303;-94
2022/01/14 08:58:19;;;;;;;;;;;;;;;6.34;59.53;100726.22;4442519;32;20008;-92
2022/01/14 09:00:44;;;;;;;;;;;;;;;6.24;59.52;100729.66;4443052;32;20037;-93
2022/01/14 09:03:10;;;;;;;;;;;;;;;6.14;59.52;100736.53;4442487;32;19995;-93
2022/01/14 09:05:35;;;;;;;;;;;;;;;6.54;59.55;100733.97;4442589;32;20038;-93
2022/01/14 09:08:00;;;;;;;;;;;;;;;6.65;59.54;100730.53;4442867;32;20008;-94
2022/01/14 09:10:25;;;;;;;;;;;;;;;6.52;59.54;100727.94;4443177;32;19996;-93
2022/01/14 09:12:51;;;;;;;;;;;;;;;6.65;59.56;100729.69;4442917;32;20007;-93
2022/01/14 09:15:16;;;;;;;;;;;;;;;6.82;59.56;100734.81;4442363;32;20008;-92
2022/01/14 09:17:41;;;;;;;;;;;;;;;6.90;59.57;100726.22;4442574;32;19993;-94
2022/01/14 09:20:07;;;;;;;;;;;;;;;6.88;59.56;100743.47;4442894;32;20007;-92
2022/01/14 09:22:34;;;;;;;;;;;;;;;7.02;59.57;100715.81;4442667;32;20276;-92
2022/01/14 09:24:59;;;;;;;;;;;;;;;6.99;59.57;100713.25;4442333;32;19985;-94
2022/01/14 09:27:26;;;;;;;;;;;;;;;7.05;59.57;100707.19;4455587;32;19980;-92
2022/01/14 09:29:53;;;;;;;;;;;;;;;7.13;59.58;100699.41;4442308;32;19966;-93
2022/01/14 09:32:18;;;;;;;;;;;;;;;7.10;59.58;100692.53;4442319;32;20032;-93
2022/01/14 09:34:44;;;;;;;;;;;;;;;7.23;59.58;100688.16;4442355;32;20025;-92
2022/01/14 09:37:09;;;;;;;;;;;;;;;7.25;59.59;100682.09;4455697;32;19985;-94
2022/01/14 09:39:36;;;;;;;;;;;;;;;7.33;59.59;100688.13;4442236;32;20329;-93
2022/01/14 09:42:01;;;;;;;;;;;;;;;7.28;59.58;100678.63;4442742;32;19977;-94
2022/01/14 09:44:26;;;;;;;;;;;;;;;7.28;59.58;100689.84;4442423;32;20026;-93
2022/01/14 09:46:52;;;;;;;;;;;;;;;7.50;59.60;100672.50;4442217;32;19990;-92
2022/01/14 09:49:18;;;;;;;;;;;;;;;7.40;59.59;100670.81;4442881;32;20030;-92
2022/01/14 09:51:43;;;;;;;;;;;;;;;7.45;59.59;100679.44;4457177;32;20326;-93
2022/01/14 09:54:10;;;;;;;;;;;;;;;7.60;59.60;100678.50;4455482;32;19996;-95
2022/01/14 09:56:35;;;;;;;;;;;;;;;7.68;59.60;100677.59;4442369;32;20003;-93
2022/01/14 09:59:02;;;;;;;;;;;;;;;7.92;59.63;100675.72;4455117;32;20005;-94
2022/01/14 10:01:28;;;;;;;;;;;;;;;7.88;59.62;100666.25;4441479;32;20022;-93
2022/01/14 10:03:54;;;;;;;;;;;;;;;7.68;59.60;100669.81;4441832;32;20012;-92
2022/01/14 10:06:35;;;;;;;;;;;;;;;7.85;59.62;100649.00;4441999;32;20075;-92
2022/01/14 10:09:04;;;;;;;;;;;;;;;7.94;59.63;100654.09;4441903;32;19992;-92
2022/01/14 10:11:29;;;;;;;;;;;;;;;7.87;59.62;100656.75;4442158;32;20402;-93
2022/01/14 10:13:55;;;;;;;;;;;;;;;8.03;59.62;100658.34;4441212;32;20019;-92
2022/01/14 10:16:20;;;;;;;;;;;;;;;7.98;59.62;100641.97;4441581;32;19993;-91
2022/01/14 10:18:48;;;;;;;;;;;;;;;8.11;59.63;100635.84;4441470;32;20052;-91
2022/01/14 10:21:13;;;;;;;;;;;;;;;7.96;59.62;100641.13;4441171;32;20466;-93
2022/01/14 10:23:42;;;;;;;;;;;;;;;8.27;59.64;100636.53;4440573;32;20009;-92
2022/01/14 10:26:07;;;;;;;;;;;;;;;8.43;59.64;100629.53;4453160;32;20304;-92
2022/01/14 10:28:32;;;;;;;;;;;;;;;8.25;59.64;100626.19;4441265;32;19985;-93
2022/01/14 10:30:57;;;;;;;;;;;;;;;8.13;59.63;100636.69;4440987;32;19997;-95
2022/01/14 10:33:26;;;;;;;;;;;;;;;8.21;59.63;100631.41;4441534;32;20032;-90
2022/01/14 10:35:52;;;;;;;;;;;;;;;8.31;59.65;100644.31;4454603;32;20010;-90
2022/01/14 10:38:19;;;;;;;;;;;;;;;8.04;59.62;100634.13;4441045;32;20001;-92
2022/01/14 10:40:45;;;;;;;;;;;;;;;8.07;59.62;100628.09;4441747;32;19981;-93
2022/01/14 10:43:11;;;;;;;;;;;;;;;8.18;59.63;100628.84;4441866;32;19981;-91
2022/01/14 10:45:36;;;;;;;;;;;;;;;8.32;59.64;100627.88;4441729;32;19993;-93
2022/01/14 10:48:05;;;;;;;;;;;;;;;8.23;59.64;100612.38;4441333;32;19992;-92
2022/01/14 10:50:32;;;;;;;;;;;;;;;8.18;59.64;100602.94;4441980;32;20645;-93
2022/01/14 10:52:58;;;;;;;;;;;;;;;8.26;59.64;100607.16;4441747;32;20005;-92
2022/01/14 10:55:27;;;;;;;;;;;;;;;8.28;59.64;100609.75;4442079;32;20029;-92
2022/01/14 10:57:52;;;;;;;;;;;;;;;8.26;59.64;100609.75;4441476;32;20013;-90
2022/01/14 11:00:19;;;;;;;;;;;;;;;8.17;59.64;100601.22;4441412;32;20283;-92
2022/01/14 11:02:52;;;;;;;;;;;;;;;8.21;59.63;100603.75;4440487;32;19985;-90
2022/01/14 11:05:19;;;;;;;;;;;;;;;8.39;59.65;100614.88;4442255;32;19988;-94
2022/01/14 11:07:44;;;;;;;;;;;;;;;8.48;59.65;100605.25;4441330;32;20046;-92
2022/01/14 11:10:13;;;;;;;;;;;;;;;8.44;59.66;100598.38;4441162;32;20045;-91
2022/01/14 11:12:38;;;;;;;;;;;;;;;8.49;59.65;100600.94;4454070;32;20001;-93
2022/01/14 11:15:03;;;;;;;;;;;;;;;8.32;59.64;100591.56;4441037;32;20318;-92
2022/01/14 11:17:29;;;;;;;;;;;;;;;8.28;59.64;100595.06;4441258;32;19989;-93
2022/01/14 11:19:54;;;;;;;;;;;;;;;8.37;59.64;100590.69;4442024;32;19992;-93
2022/01/14 11:25:03;;;;;;;;;;;;;;;8.31;59.64;100607.16;4454340;32;20012;-89
2022/01/14 11:27:30;;;;;;;;;;;;;;;8.12;59.63;100582.25;4440832;32;20000;-92
2022/01/14 11:29:58;;;;;;;;;;;;;;;7.91;59.61;100578.94;4441816;32;19976;-91
2022/01/14 11:32:24;;;;;;;;;;;;;;;8.15;59.63;100585.66;4442314;32;20613;-94
2022/01/14 11:34:50;;;;;;;;;;;;;;;8.38;59.65;100575.09;4441418;32;20097;-92
2022/01/14 11:37:17;;;;;;;;;;;;;;;8.41;59.65;100576.81;4441843;32;19997;-92
2022/01/14 11:39:54;;;;;;;;;;;;;;;8.50;59.65;100549.03;4443611;32;19949;-93
2022/01/14 11:42:22;;;;;;;;;;;;;;;8.43;59.64;100562.94;4456387;32;19957;-94
2022/01/14 11:47:29;;;;;;;;;;;;;;;8.61;59.66;100556.69;4455897;32;20348;-95
2022/01/14 11:49:58;;;;;;;;;;;;;;;8.55;59.65;100552.44;4455631;32;19985;-93
2022/01/14 11:52:32;;;;;;;;;;;;;;;8.58;59.65;100551.56;4443054;32;19977;-93
2022/01/14 11:54:57;;;;;;;;;;;;;;;8.35;59.64;100536.22;4455416;32;20087;-91
2022/01/14 11:57:39;;;;;;;;;;;;;;;8.32;59.64;100538.81;4442681;32;19989;-94
2022/01/14 12:00:04;;;;;;;;;;;;;;;8.63;59.66;100528.13;4455754;32;19977;-91
2022/01/14 12:02:31;;;;;;;;;;;;;;;8.53;59.66;100504.03;4441899;32;19992;-91
2022/01/14 12:04:59;;;;;;;;;;;;;;;8.34;59.64;100510.31;4442383;32;19997;-93
2022/01/14 12:07:24;;;;;;;;;;;;;;;8.26;59.64;100505.16;4455542;32;20005;-91
2022/01/14 12:10:03;;;;;;;;;;;;;;;8.52;59.66;100499.72;4441300;32;20318;-92
2022/01/14 12:12:30;;;;;;;;;;;;;;;8.52;59.66;100504.91;4441889;32;19998;-93
2022/01/14 12:14:58;;;;;;;;;;;;;;;8.53;59.66;100498.84;4441578;32;20004;-92
2022/01/14 12:17:32;;;;;;;;;;;;;;;8.58;59.66;100482.34;4442496;32;20018;-93
2022/01/14 12:20:05;;;;;;;;;;;;;;;8.64;59.66;100478.81;4455871;32;19960;-94
2022/01/14 12:22:30;;;;;;;;;;;;;;;8.63;59.66;100477.09;4442887;32;19995;-93
2022/01/14 12:24:58;;;;;;;;;;;;;;;8.45;59.65;100485.94;4442375;32;19993;-93
2022/01/14 12:27:23;;;;;;;;;;;;;;;8.70;59.66;100468.34;4443204;32;20008;-93
2022/01/14 12:29:50;;;;;;;;;;;;;;;8.82;59.67;100465.59;4442820;32;19977;-95
2022/01/14 12:32:20;;;;;;;;;;;;;;;8.82;59.67;100475.13;4443184;32;19993;-93
2022/01/14 12:34:45;;;;;;;;;;;;;;;8.78;59.67;100466.53;4442656;32;20034;-92
2022/01/14 12:37:14;;;;;;;;;;;;;;;8.94;59.67;100464.56;4455445;32;20005;-94
2022/01/14 12:39:39;;;;;;;;;;;;;;;8.88;59.67;100464.66;4442736;32;20659;-95
2022/01/14 12:42:05;;;;;;;;;;;;;;;8.64;59.66;100471.03;4443441;32;19981;-93
2022/01/14 12:44:30;;;;;;;;;;;;;;;8.53;59.66;100488.47;4455870;32;20009;-93
2022/01/14 12:46:59;;;;;;;;;;;;;;;8.70;59.66;100480.47;4442265;32;20003;-93
2022/01/14 12:49:33;;;;;;;;;;;;;;;8.86;59.67;100471.59;4442731;32;20724;-92
2022/01/14 12:52:09;;;;;;;;;;;;;;;8.91;59.68;100478.44;4442794;32;19984;-93
2022/01/14 12:54:36;;;;;;;;;;;;;;;8.90;59.68;100494.03;4442258;32;19969;-91
2022/01/14 12:57:02;;;;;;;;;;;;;;;8.97;59.67;100494.81;4442751;32;19997;-92
2022/01/14 12:59:27;;;;;;;;;;;;;;;9.02;59.68;100480.06;4442645;32;20313;-96
2022/01/14 13:01:53;;;;;;;;;;;;;;;9.12;59.69;100479.03;4442755;32;20224;-93
2022/01/14 13:04:19;;;;;;;;;;;;;;;9.02;59.68;100482.66;4455294;32;20337;-96
2022/01/14 13:06:51;;;;;;;;;;;;;;;9.03;59.68;100487.81;4441979;32;19996;-91
2022/01/14 13:09:21;;;;;;;;;;;;;;;9.07;59.69;100473.91;4454870;32;19981;-94
2022/01/14 13:11:59;;;;;;;;;;;;;;;9.09;59.69;100494.66;4455427;32;19981;-93